sensor_id;sensor_type;location;lat;lon;timestamp;P1;durP1;ratioP1;P2;durP2;ratioP2
49396;SDS011;35615;41.410;2.194;2023-11-21T00:00:02;19.45;;;11.07;;
49396;SDS011;35615;41.410;2.194;2023-11-21T00:02:38;25.92;;;12.85;;
49396;SDS011;35615;41.410;2.194;2023-11-21T00:05:09;23.98;;;12.02;;
49396;SDS011;35615;41.410;2.194;2023-11-21T00:07:38;20.60;;;10.75;;
49396;SDS011;35615;41.410;2.194;2023-11-21T00:10:07;19.02;;;10.48;;
49396;SDS011;35615;41.410;2.194;2023-11-21T00:12:37;19.55;;;10.73;;
49396;SDS011;35615;41.410;2.194;2023-11-21T00:15:05;19.58;;;10.70;;
49396;SDS011;35615;41.410;2.194;2023-11-21T00:17:39;18.17;;;10.00;;
49396;SDS011;35615;41.410;2.194;2023-11-21T00:20:08;18.88;;;9.65;;
49396;SDS011;35615;41.410;2.194;2023-11-21T00:22:44;15.60;;;10.20;;
49396;SDS011;35615;41.410;2.194;2023-11-21T00:25:11;16.20;;;10.20;;
49396;SDS011;35615;41.410;2.194;2023-11-21T00:27:42;17.92;;;10.95;;
49396;SDS011;35615;41.410;2.194;2023-11-21T00:30:13;15.02;;;10.05;;
49396;SDS011;35615;41.410;2.194;2023-11-21T00:32:44;18.42;;;10.15;;
49396;SDS011;35615;41.410;2.194;2023-11-21T00:35:12;14.65;;;9.13;;
49396;SDS011;35615;41.410;2.194;2023-11-21T00:37:40;18.65;;;9.93;;
49396;SDS011;35615;41.410;2.194;2023-11-21T00:40:12;18.88;;;9.80;;
49396;SDS011;35615;41.410;2.194;2023-11-21T00:42:43;18.15;;;10.18;;
49396;SDS011;35615;41.410;2.194;2023-11-21T00:45:11;16.42;;;9.88;;
49396;SDS011;35615;41.410;2.194;2023-11-21T00:47:39;13.90;;;8.90;;
49396;SDS011;35615;41.410;2.194;2023-11-21T00:50:09;18.75;;;8.80;;
49396;SDS011;35615;41.410;2.194;2023-11-21T00:52:37;12.18;;;8.27;;
49396;SDS011;35615;41.410;2.194;2023-11-21T00:55:05;17.92;;;8.32;;
49396;SDS011;35615;41.410;2.194;2023-11-21T00:57:35;13.75;;;8.40;;
49396;SDS011;35615;41.410;2.194;2023-11-21T01:03:36;16.52;;;9.02;;
49396;SDS011;35615;41.410;2.194;2023-11-21T01:06:12;15.98;;;8.75;;
49396;SDS011;35615;41.410;2.194;2023-11-21T01:09:00;13.80;;;8.45;;
49396;SDS011;35615;41.410;2.194;2023-11-21T01:11:39;19.30;;;9.07;;
49396;SDS011;35615;41.410;2.194;2023-11-21T01:14:19;14.02;;;9.52;;
49396;SDS011;35615;41.410;2.194;2023-11-21T01:17:27;18.17;;;9.13;;
49396;SDS011;35615;41.410;2.194;2023-11-21T01:19:57;18.88;;;9.82;;
49396;SDS011;35615;41.410;2.194;2023-11-21T01:22:25;14.32;;;9.60;;
49396;SDS011;35615;41.410;2.194;2023-11-21T01:25:04;13.85;;;8.85;;
49396;SDS011;35615;41.410;2.194;2023-11-21T01:27:54;12.57;;;8.68;;
49396;SDS011;35615;41.410;2.194;2023-11-21T01:30:39;14.90;;;9.07;;
49396;SDS011;35615;41.410;2.194;2023-11-21T01:33:14;15.60;;;9.57;;
49396;SDS011;35615;41.410;2.194;2023-11-21T01:35:48;17.58;;;9.38;;
49396;SDS011;35615;41.410;2.194;2023-11-21T01:38:34;15.55;;;9.80;;
49396;SDS011;35615;41.410;2.194;2023-11-21T01:41:21;16.17;;;10.82;;
49396;SDS011;35615;41.410;2.194;2023-11-21T01:43:57;17.83;;;12.48;;
49396;SDS011;35615;41.410;2.194;2023-11-21T01:46:38;19.02;;;12.00;;
49396;SDS011;35615;41.410;2.194;2023-11-21T01:49:33;18.63;;;12.65;;
49396;SDS011;35615;41.410;2.194;2023-11-21T01:52:16;26.92;;;14.85;;
49396;SDS011;35615;41.410;2.194;2023-11-21T01:55:03;23.75;;;14.75;;
49396;SDS011;35615;41.410;2.194;2023-11-21T02:03:19;39.05;;;19.27;;
49396;SDS011;35615;41.410;2.194;2023-11-21T02:05:47;34.53;;;18.10;;
49396;SDS011;35615;41.410;2.194;2023-11-21T02:08:15;41.85;;;19.92;;
49396;SDS011;35615;41.410;2.194;2023-11-21T02:10:43;39.10;;;19.73;;
49396;SDS011;35615;41.410;2.194;2023-11-21T02:13:10;32.30;;;19.65;;
49396;SDS011;35615;41.410;2.194;2023-11-21T02:15:38;36.67;;;21.27;;
49396;SDS011;35615;41.410;2.194;2023-11-21T02:18:05;41.40;;;20.83;;
49396;SDS011;35615;41.410;2.194;2023-11-21T02:20:33;46.08;;;24.58;;
49396;SDS011;35615;41.410;2.194;2023-11-21T02:23:03;41.15;;;23.63;;
49396;SDS011;35615;41.410;2.194;2023-11-21T02:25:32;48.63;;;25.38;;
49396;SDS011;35615;41.410;2.194;2023-11-21T02:28:01;48.80;;;25.27;;
49396;SDS011;35615;41.410;2.194;2023-11-21T02:30:29;45.47;;;25.52;;
49396;SDS011;35615;41.410;2.194;2023-11-21T02:33:01;49.75;;;27.55;;
49396;SDS011;35615;41.410;2.194;2023-11-21T02:35:30;46.00;;;25.45;;
49396;SDS011;35615;41.410;2.194;2023-11-21T02:37:58;56.78;;;28.88;;
49396;SDS011;35615;41.410;2.194;2023-11-21T02:40:26;53.47;;;28.23;;
49396;SDS011;35615;41.410;2.194;2023-11-21T02:42:54;54.63;;;31.08;;
49396;SDS011;35615;41.410;2.194;2023-11-21T02:45:24;59.13;;;32.53;;
49396;SDS011;35615;41.410;2.194;2023-11-21T02:47:54;63.53;;;31.02;;
49396;SDS011;35615;41.410;2.194;2023-11-21T02:50:25;62.67;;;31.90;;
49396;SDS011;35615;41.410;2.194;2023-11-21T02:52:55;61.28;;;32.42;;
49396;SDS011;35615;41.410;2.194;2023-11-21T02:55:27;60.47;;;31.63;;
49396;SDS011;35615;41.410;2.194;2023-11-21T02:57:55;64.05;;;31.70;;
49396;SDS011;35615;41.410;2.194;2023-11-21T03:00:23;56.80;;;29.63;;
49396;SDS011;35615;41.410;2.194;2023-11-21T03:02:53;61.20;;;31.83;;
49396;SDS011;35615;41.410;2.194;2023-11-21T03:05:25;67.63;;;31.88;;
49396;SDS011;35615;41.410;2.194;2023-11-21T03:07:52;52.67;;;29.55;;
49396;SDS011;35615;41.410;2.194;2023-11-21T03:10:19;62.47;;;30.10;;
49396;SDS011;35615;41.410;2.194;2023-11-21T03:12:46;54.15;;;31.88;;
49396;SDS011;35615;41.410;2.194;2023-11-21T03:15:13;60.65;;;30.73;;
49396;SDS011;35615;41.410;2.194;2023-11-21T03:17:42;51.13;;;28.80;;
49396;SDS011;35615;41.410;2.194;2023-11-21T03:20:10;46.78;;;26.20;;
49396;SDS011;35615;41.410;2.194;2023-11-21T03:22:38;50.20;;;26.38;;
49396;SDS011;35615;41.410;2.194;2023-11-21T03:25:07;48.63;;;26.00;;
49396;SDS011;35615;41.410;2.194;2023-11-21T03:27:38;44.83;;;26.70;;
49396;SDS011;35615;41.410;2.194;2023-11-21T03:30:07;51.40;;;26.30;;
49396;SDS011;35615;41.410;2.194;2023-11-21T03:32:36;52.17;;;26.63;;
49396;SDS011;35615;41.410;2.194;2023-11-21T03:35:04;51.65;;;27.42;;
49396;SDS011;35615;41.410;2.194;2023-11-21T03:37:34;57.72;;;28.13;;
49396;SDS011;35615;41.410;2.194;2023-11-21T03:40:02;54.92;;;26.67;;
49396;SDS011;35615;41.410;2.194;2023-11-21T03:42:31;56.72;;;27.65;;
49396;SDS011;35615;41.410;2.194;2023-11-21T03:44:58;53.08;;;28.42;;
49396;SDS011;35615;41.410;2.194;2023-11-21T03:47:26;48.40;;;23.55;;
49396;SDS011;35615;41.410;2.194;2023-11-21T03:49:55;33.92;;;16.23;;
49396;SDS011;35615;41.410;2.194;2023-11-21T03:52:22;24.13;;;9.80;;
49396;SDS011;35615;41.410;2.194;2023-11-21T03:54:51;9.57;;;5.45;;
49396;SDS011;35615;41.410;2.194;2023-11-21T03:57:21;7.53;;;4.57;;
49396;SDS011;35615;41.410;2.194;2023-11-21T03:59:48;14.48;;;4.78;;
49396;SDS011;35615;41.410;2.194;2023-11-21T04:02:22;6.88;;;3.45;;
49396;SDS011;35615;41.410;2.194;2023-11-21T04:05:03;9.10;;;2.95;;
49396;SDS011;35615;41.410;2.194;2023-11-21T04:07:48;3.75;;;2.65;;
49396;SDS011;35615;41.410;2.194;2023-11-21T04:10:33;7.95;;;2.42;;
49396;SDS011;35615;41.410;2.194;2023-11-21T04:13:17;2.30;;;2.05;;
49396;SDS011;35615;41.410;2.194;2023-11-21T04:18:55;3.88;;;1.60;;
49396;SDS011;35615;41.410;2.194;2023-11-21T04:21:28;2.45;;;1.23;;
49396;SDS011;35615;41.410;2.194;2023-11-21T04:24:07;1.25;;;1.10;;
49396;SDS011;35615;41.410;2.194;2023-11-21T04:26:43;1.63;;;1.40;;
49396;SDS011;35615;41.410;2.194;2023-11-21T04:29:22;6.40;;;0.93;;
49396;SDS011;35615;41.410;2.194;2023-11-21T04:32:01;1.00;;;0.93;;
49396;SDS011;35615;41.410;2.194;2023-11-21T04:34:46;0.93;;;0.93;;
49396;SDS011;35615;41.410;2.194;2023-11-21T04:37:30;6.65;;;1.10;;
49396;SDS011;35615;41.410;2.194;2023-11-21T04:40:07;4.57;;;1.23;;
49396;SDS011;35615;41.410;2.194;2023-11-21T04:42:50;1.20;;;1.17;;
49396;SDS011;35615;41.410;2.194;2023-11-21T04:45:29;1.27;;;1.17;;
49396;SDS011;35615;41.410;2.194;2023-11-21T04:48:22;2.65;;;1.45;;
49396;SDS011;35615;41.410;2.194;2023-11-21T04:51:04;2.03;;;1.38;;
49396;SDS011;35615;41.410;2.194;2023-11-21T04:53:49;1.83;;;1.30;;
49396;SDS011;35615;41.410;2.194;2023-11-21T04:56:37;3.45;;;1.60;;
49396;SDS011;35615;41.410;2.194;2023-11-21T04:59:11;1.52;;;1.20;;
49396;SDS011;35615;41.410;2.194;2023-11-21T05:01:54;3.10;;;1.10;;
49396;SDS011;35615;41.410;2.194;2023-11-21T05:04:32;1.80;;;1.13;;
49396;SDS011;35615;41.410;2.194;2023-11-21T05:07:19;1.52;;;1.10;;
49396;SDS011;35615;41.410;2.194;2023-11-21T05:12:43;6.00;;;1.40;;
49396;SDS011;35615;41.410;2.194;2023-11-21T05:15:26;4.65;;;1.35;;
49396;SDS011;35615;41.410;2.194;2023-11-21T05:18:12;3.35;;;2.15;;
49396;SDS011;35615;41.410;2.194;2023-11-21T05:21:00;8.05;;;2.72;;
49396;SDS011;35615;41.410;2.194;2023-11-21T05:23:50;5.93;;;1.98;;
49396;SDS011;35615;41.410;2.194;2023-11-21T05:26:22;7.00;;;2.45;;
49396;SDS011;35615;41.410;2.194;2023-11-21T05:29:19;4.95;;;2.10;;
49396;SDS011;35615;41.410;2.194;2023-11-21T05:32:04;6.75;;;2.08;;
49396;SDS011;35615;41.410;2.194;2023-11-21T05:34:39;7.25;;;2.72;;
49396;SDS011;35615;41.410;2.194;2023-11-21T05:42:56;10.93;;;1.67;;
49396;SDS011;35615;41.410;2.194;2023-11-21T05:45:34;10.00;;;1.27;;
49396;SDS011;35615;41.410;2.194;2023-11-21T05:51:10;10.30;;;1.52;;
49396;SDS011;35615;41.410;2.194;2023-11-21T05:54:06;4.25;;;1.58;;
49396;SDS011;35615;41.410;2.194;2023-11-21T05:56:40;5.82;;;1.10;;
49396;SDS011;35615;41.410;2.194;2023-11-21T06:02:15;5.10;;;1.00;;
49396;SDS011;35615;41.410;2.194;2023-11-21T06:07:50;14.55;;;2.10;;
49396;SDS011;35615;41.410;2.194;2023-11-21T06:10:40;5.30;;;1.20;;
49396;SDS011;35615;41.410;2.194;2023-11-21T06:13:19;5.35;;;0.95;;
49396;SDS011;35615;41.410;2.194;2023-11-21T06:16:03;6.03;;;1.75;;
49396;SDS011;35615;41.410;2.194;2023-11-21T06:19:06;5.35;;;1.50;;
49396;SDS011;35615;41.410;2.194;2023-11-21T06:21:37;5.57;;;1.10;;
49396;SDS011;35615;41.410;2.194;2023-11-21T06:24:14;7.90;;;1.20;;
49396;SDS011;35615;41.410;2.194;2023-11-21T06:27:03;10.50;;;1.42;;
49396;SDS011;35615;41.410;2.194;2023-11-21T06:29:51;8.07;;;1.30;;
49396;SDS011;35615;41.410;2.194;2023-11-21T06:32:41;5.75;;;1.67;;
49396;SDS011;35615;41.410;2.194;2023-11-21T06:35:31;12.50;;;1.65;;
49396;SDS011;35615;41.410;2.194;2023-11-21T06:38:08;11.07;;;1.35;;
49396;SDS011;35615;41.410;2.194;2023-11-21T06:40:50;12.45;;;1.65;;
49396;SDS011;35615;41.410;2.194;2023-11-21T06:43:32;10.50;;;1.73;;
49396;SDS011;35615;41.410;2.194;2023-11-21T06:46:11;9.00;;;1.20;;
49396;SDS011;35615;41.410;2.194;2023-11-21T06:48:52;8.38;;;1.30;;
49396;SDS011;35615;41.410;2.194;2023-11-21T06:51:41;7.72;;;1.50;;
49396;SDS011;35615;41.410;2.194;2023-11-21T06:54:31;7.68;;;1.00;;
49396;SDS011;35615;41.410;2.194;2023-11-21T06:57:12;4.32;;;1.08;;
49396;SDS011;35615;41.410;2.194;2023-11-21T06:59:43;5.07;;;1.05;;
49396;SDS011;35615;41.410;2.194;2023-11-21T07:02:25;1.60;;;0.90;;
49396;SDS011;35615;41.410;2.194;2023-11-21T07:04:56;7.43;;;0.90;;
49396;SDS011;35615;41.410;2.194;2023-11-21T07:07:27;2.92;;;0.98;;
49396;SDS011;35615;41.410;2.194;2023-11-21T07:09:57;8.52;;;1.23;;
49396;SDS011;35615;41.410;2.194;2023-11-21T07:12:30;5.63;;;0.90;;
49396;SDS011;35615;41.410;2.194;2023-11-21T07:15:01;5.95;;;1.33;;
49396;SDS011;35615;41.410;2.194;2023-11-21T07:18:23;4.25;;;1.08;;
49396;SDS011;35615;41.410;2.194;2023-11-21T07:20:57;2.00;;;0.80;;
49396;SDS011;35615;41.410;2.194;2023-11-21T07:23:27;2.95;;;0.80;;
49396;SDS011;35615;41.410;2.194;2023-11-21T07:26:07;14.82;;;1.20;;
49396;SDS011;35615;41.410;2.194;2023-11-21T07:28:58;4.00;;;0.90;;
49396;SDS011;35615;41.410;2.194;2023-11-21T07:31:36;23.70;;;2.38;;
49396;SDS011;35615;41.410;2.194;2023-11-21T07:42:16;10.85;;;1.20;;
49396;SDS011;35615;41.410;2.194;2023-11-21T07:44:54;3.50;;;0.80;;
49396;SDS011;35615;41.410;2.194;2023-11-21T07:47:38;12.00;;;1.67;;
49396;SDS011;35615;41.410;2.194;2023-11-21T07:50:06;4.85;;;0.80;;
49396;SDS011;35615;41.410;2.194;2023-11-21T07:52:44;13.10;;;1.30;;
49396;SDS011;35615;41.410;2.194;2023-11-21T07:55:21;9.35;;;1.25;;
49396;SDS011;35615;41.410;2.194;2023-11-21T07:57:57;3.65;;;1.10;;
49396;SDS011;35615;41.410;2.194;2023-11-21T08:00:31;12.32;;;1.40;;
49396;SDS011;35615;41.410;2.194;2023-11-21T08:03:07;4.32;;;1.52;;
49396;SDS011;35615;41.410;2.194;2023-11-21T08:05:56;3.38;;;1.23;;
49396;SDS011;35615;41.410;2.194;2023-11-21T08:08:38;7.80;;;0.98;;
49396;SDS011;35615;41.410;2.194;2023-11-21T08:11:22;7.05;;;1.42;;
49396;SDS011;35615;41.410;2.194;2023-11-21T08:13:56;7.07;;;1.48;;
49396;SDS011;35615;41.410;2.194;2023-11-21T08:19:19;3.70;;;1.13;;
49396;SDS011;35615;41.410;2.194;2023-11-21T08:24:44;2.57;;;0.90;;
49396;SDS011;35615;41.410;2.194;2023-11-21T08:27:28;5.82;;;1.60;;
49396;SDS011;35615;41.410;2.194;2023-11-21T08:30:16;2.00;;;1.35;;
49396;SDS011;35615;41.410;2.194;2023-11-21T08:35:42;8.50;;;0.98;;
49396;SDS011;35615;41.410;2.194;2023-11-21T08:38:24;3.80;;;0.85;;
49396;SDS011;35615;41.410;2.194;2023-11-21T08:43:52;6.63;;;1.33;;
49396;SDS011;35615;41.410;2.194;2023-11-21T08:46:28;4.90;;;1.27;;
49396;SDS011;35615;41.410;2.194;2023-11-21T08:49:03;16.88;;;2.22;;
49396;SDS011;35615;41.410;2.194;2023-11-21T08:51:56;4.38;;;1.30;;
49396;SDS011;35615;41.410;2.194;2023-11-21T08:57:27;4.70;;;1.08;;
49396;SDS011;35615;41.410;2.194;2023-11-21T09:00:15;10.40;;;1.02;;
49396;SDS011;35615;41.410;2.194;2023-11-21T09:02:47;10.05;;;1.25;;
49396;SDS011;35615;41.410;2.194;2023-11-21T09:05:23;3.47;;;0.85;;
49396;SDS011;35615;41.410;2.194;2023-11-21T09:10:56;10.77;;;1.45;;
49396;SDS011;35615;41.410;2.194;2023-11-21T09:13:50;3.22;;;1.17;;
49396;SDS011;35615;41.410;2.194;2023-11-21T09:16:30;4.85;;;1.52;;
49396;SDS011;35615;41.410;2.194;2023-11-21T09:19:14;11.77;;;2.08;;
49396;SDS011;35615;41.410;2.194;2023-11-21T09:21:54;6.80;;;1.92;;
49396;SDS011;35615;41.410;2.194;2023-11-21T09:24:41;14.43;;;2.28;;
49396;SDS011;35615;41.410;2.194;2023-11-21T09:27:12;6.78;;;2.25;;
49396;SDS011;35615;41.410;2.194;2023-11-21T09:29:46;7.55;;;2.08;;
49396;SDS011;35615;41.410;2.194;2023-11-21T09:32:26;5.30;;;1.80;;
49396;SDS011;35615;41.410;2.194;2023-11-21T09:35:15;7.85;;;2.10;;
49396;SDS011;35615;41.410;2.194;2023-11-21T09:37:50;3.92;;;2.15;;
49396;SDS011;35615;41.410;2.194;2023-11-21T09:43:30;10.10;;;2.30;;
49396;SDS011;35615;41.410;2.194;2023-11-21T09:46:18;9.68;;;3.03;;
49396;SDS011;35615;41.410;2.194;2023-11-21T09:52:15;10.18;;;2.88;;
49396;SDS011;35615;41.410;2.194;2023-11-21T09:54:55;5.90;;;2.90;;
49396;SDS011;35615;41.410;2.194;2023-11-21T09:57:33;14.20;;;3.33;;
49396;SDS011;35615;41.410;2.194;2023-11-21T10:00:05;10.20;;;2.33;;
49396;SDS011;35615;41.410;2.194;2023-11-21T10:02:42;10.88;;;2.72;;
49396;SDS011;35615;41.410;2.194;2023-11-21T10:05:27;13.52;;;2.88;;
49396;SDS011;35615;41.410;2.194;2023-11-21T10:10:56;5.63;;;2.25;;
49396;SDS011;35615;41.410;2.194;2023-11-21T10:13:37;9.05;;;3.85;;
49396;SDS011;35615;41.410;2.194;2023-11-21T10:16:14;4.90;;;2.97;;
49396;SDS011;35615;41.410;2.194;2023-11-21T10:19:12;7.90;;;2.90;;
49396;SDS011;35615;41.410;2.194;2023-11-21T10:21:53;6.95;;;2.38;;
49396;SDS011;35615;41.410;2.194;2023-11-21T10:24:30;8.25;;;2.40;;
49396;SDS011;35615;41.410;2.194;2023-11-21T10:27:11;9.13;;;2.28;;
49396;SDS011;35615;41.410;2.194;2023-11-21T10:29:47;4.35;;;2.58;;
49396;SDS011;35615;41.410;2.194;2023-11-21T10:32:27;6.20;;;1.67;;
49396;SDS011;35615;41.410;2.194;2023-11-21T10:35:06;7.32;;;2.00;;
49396;SDS011;35615;41.410;2.194;2023-11-21T10:37:59;6.35;;;2.30;;
49396;SDS011;35615;41.410;2.194;2023-11-21T10:40:34;5.82;;;2.30;;
49396;SDS011;35615;41.410;2.194;2023-11-21T10:43:13;3.42;;;2.00;;
49396;SDS011;35615;41.410;2.194;2023-11-21T10:48:31;6.80;;;2.00;;
49396;SDS011;35615;41.410;2.194;2023-11-21T10:51:13;7.10;;;2.38;;
49396;SDS011;35615;41.410;2.194;2023-11-21T10:53:46;7.05;;;2.80;;
49396;SDS011;35615;41.410;2.194;2023-11-21T10:56:23;8.20;;;2.47;;
49396;SDS011;35615;41.410;2.194;2023-11-21T10:59:05;4.90;;;2.20;;
49396;SDS011;35615;41.410;2.194;2023-11-21T11:01:50;4.97;;;2.40;;
49396;SDS011;35615;41.410;2.194;2023-11-21T11:04:34;24.38;;;3.00;;
49396;SDS011;35615;41.410;2.194;2023-11-21T11:07:06;9.73;;;2.70;;
49396;SDS011;35615;41.410;2.194;2023-11-21T11:09:50;3.45;;;1.98;;
49396;SDS011;35615;41.410;2.194;2023-11-21T11:12:29;6.95;;;2.40;;
49396;SDS011;35615;41.410;2.194;2023-11-21T11:15:03;9.38;;;2.75;;
49396;SDS011;35615;41.410;2.194;2023-11-21T11:17:38;9.07;;;3.40;;
49396;SDS011;35615;41.410;2.194;2023-11-21T11:20:14;3.58;;;1.88;;
49396;SDS011;35615;41.410;2.194;2023-11-21T11:32:09;7.53;;;1.50;;
49396;SDS011;35615;41.410;2.194;2023-11-21T11:38:14;3.15;;;1.70;;
49396;SDS011;35615;41.410;2.194;2023-11-21T11:44:01;1.58;;;1.48;;
49396;SDS011;35615;41.410;2.194;2023-11-21T11:49:38;6.43;;;1.20;;
49396;SDS011;35615;41.410;2.194;2023-11-21T11:52:55;2.00;;;1.30;;
49396;SDS011;35615;41.410;2.194;2023-11-21T11:59:03;3.15;;;1.80;;
49396;SDS011;35615;41.410;2.194;2023-11-21T12:01:39;3.60;;;1.38;;
49396;SDS011;35615;41.410;2.194;2023-11-21T12:07:38;2.85;;;1.30;;
49396;SDS011;35615;41.410;2.194;2023-11-21T12:10:35;4.38;;;1.80;;
49396;SDS011;35615;41.410;2.194;2023-11-21T12:13:14;4.47;;;1.30;;
49396;SDS011;35615;41.410;2.194;2023-11-21T12:15:52;3.08;;;1.25;;
49396;SDS011;35615;41.410;2.194;2023-11-21T12:18:40;2.10;;;1.02;;
49396;SDS011;35615;41.410;2.194;2023-11-21T12:21:40;3.05;;;2.08;;
49396;SDS011;35615;41.410;2.194;2023-11-21T12:24:23;2.00;;;1.58;;
49396;SDS011;35615;41.410;2.194;2023-11-21T12:26:57;3.72;;;2.00;;
49396;SDS011;35615;41.410;2.194;2023-11-21T12:29:30;3.92;;;1.55;;
49396;SDS011;35615;41.410;2.194;2023-11-21T12:32:25;3.72;;;1.42;;
49396;SDS011;35615;41.410;2.194;2023-11-21T12:35:02;3.17;;;1.40;;
49396;SDS011;35615;41.410;2.194;2023-11-21T12:38:14;6.53;;;1.95;;
49396;SDS011;35615;41.410;2.194;2023-11-21T12:41:15;3.90;;;1.50;;
49396;SDS011;35615;41.410;2.194;2023-11-21T12:44:09;4.38;;;2.42;;
49396;SDS011;35615;41.410;2.194;2023-11-21T12:47:04;3.17;;;2.20;;
49396;SDS011;35615;41.410;2.194;2023-11-21T12:53:45;2.22;;;1.48;;
49396;SDS011;35615;41.410;2.194;2023-11-21T12:59:30;4.88;;;2.13;;
49396;SDS011;35615;41.410;2.194;2023-11-21T13:02:14;10.45;;;2.30;;
49396;SDS011;35615;41.410;2.194;2023-11-21T13:11:29;4.40;;;2.05;;
49396;SDS011;35615;41.410;2.194;2023-11-21T13:14:39;5.88;;;2.58;;
49396;SDS011;35615;41.410;2.194;2023-11-21T13:17:46;7.78;;;2.03;;
49396;SDS011;35615;41.410;2.194;2023-11-21T13:36:13;3.95;;;1.75;;
49396;SDS011;35615;41.410;2.194;2023-11-21T13:38:53;6.97;;;2.22;;
49396;SDS011;35615;41.410;2.194;2023-11-21T13:47:50;6.13;;;1.52;;
49396;SDS011;35615;41.410;2.194;2023-11-21T13:50:49;11.07;;;2.72;;
49396;SDS011;35615;41.410;2.194;2023-11-21T13:57:29;8.23;;;2.47;;
49396;SDS011;35615;41.410;2.194;2023-11-21T14:00:22;3.63;;;2.20;;
49396;SDS011;35615;41.410;2.194;2023-11-21T14:06:50;12.07;;;2.80;;
49396;SDS011;35615;41.410;2.194;2023-11-21T14:13:41;8.38;;;2.38;;
49396;SDS011;35615;41.410;2.194;2023-11-21T14:16:47;4.88;;;2.05;;
49396;SDS011;35615;41.410;2.194;2023-11-21T14:30:03;3.67;;;1.90;;
49396;SDS011;35615;41.410;2.194;2023-11-21T14:34:00;9.65;;;1.85;;
49396;SDS011;35615;41.410;2.194;2023-11-21T14:39:40;8.00;;;1.67;;
49396;SDS011;35615;41.410;2.194;2023-11-21T14:42:20;18.52;;;2.08;;
49396;SDS011;35615;41.410;2.194;2023-11-21T14:45:11;9.32;;;1.90;;
49396;SDS011;35615;41.410;2.194;2023-11-21T14:51:13;12.88;;;2.03;;
49396;SDS011;35615;41.410;2.194;2023-11-21T14:54:06;4.90;;;1.60;;
49396;SDS011;35615;41.410;2.194;2023-11-21T14:56:39;3.70;;;1.80;;
49396;SDS011;35615;41.410;2.194;2023-11-21T14:59:23;3.25;;;1.98;;
49396;SDS011;35615;41.410;2.194;2023-11-21T15:02:22;11.60;;;3.93;;
49396;SDS011;35615;41.410;2.194;2023-11-21T15:08:26;7.15;;;2.10;;
49396;SDS011;35615;41.410;2.194;2023-11-21T15:11:14;9.80;;;1.92;;
49396;SDS011;35615;41.410;2.194;2023-11-21T15:17:25;8.10;;;1.45;;
49396;SDS011;35615;41.410;2.194;2023-11-21T15:25:56;7.32;;;2.40;;
49396;SDS011;35615;41.410;2.194;2023-11-21T15:28:38;14.80;;;2.58;;
49396;SDS011;35615;41.410;2.194;2023-11-21T15:31:17;9.88;;;2.35;;
49396;SDS011;35615;41.410;2.194;2023-11-21T15:34:11;6.85;;;2.10;;
49396;SDS011;35615;41.410;2.194;2023-11-21T15:36:58;8.65;;;2.40;;
49396;SDS011;35615;41.410;2.194;2023-11-21T15:39:27;12.57;;;2.33;;
49396;SDS011;35615;41.410;2.194;2023-11-21T15:42:09;14.93;;;2.97;;
49396;SDS011;35615;41.410;2.194;2023-11-21T15:51:00;11.27;;;2.25;;
49396;SDS011;35615;41.410;2.194;2023-11-21T15:56:43;11.07;;;2.53;;
49396;SDS011;35615;41.410;2.194;2023-11-21T16:02:25;12.15;;;3.35;;
49396;SDS011;35615;41.410;2.194;2023-11-21T16:04:58;16.67;;;3.63;;
49396;SDS011;35615;41.410;2.194;2023-11-21T16:10:24;12.32;;;2.70;;
49396;SDS011;35615;41.410;2.194;2023-11-21T16:13:06;12.52;;;2.33;;
49396;SDS011;35615;41.410;2.194;2023-11-21T16:15:59;8.20;;;2.28;;
49396;SDS011;35615;41.410;2.194;2023-11-21T16:18:53;10.70;;;2.22;;
49396;SDS011;35615;41.410;2.194;2023-11-21T16:21:27;12.02;;;2.92;;
49396;SDS011;35615;41.410;2.194;2023-11-21T16:30:10;22.77;;;3.40;;
49396;SDS011;35615;41.410;2.194;2023-11-21T16:32:48;8.75;;;2.42;;
49396;SDS011;35615;41.410;2.194;2023-11-21T16:38:26;11.40;;;3.85;;
49396;SDS011;35615;41.410;2.194;2023-11-21T16:47:17;16.80;;;3.33;;
49396;SDS011;35615;41.410;2.194;2023-11-21T16:56:02;18.17;;;2.30;;
49396;SDS011;35615;41.410;2.194;2023-11-21T16:58:48;10.70;;;2.30;;
49396;SDS011;35615;41.410;2.194;2023-11-21T17:01:23;9.45;;;2.53;;
49396;SDS011;35615;41.410;2.194;2023-11-21T17:10:19;9.75;;;3.75;;
49396;SDS011;35615;41.410;2.194;2023-11-21T17:16:24;10.20;;;2.92;;
49396;SDS011;35615;41.410;2.194;2023-11-21T17:22:24;8.48;;;2.70;;
49396;SDS011;35615;41.410;2.194;2023-11-21T17:28:20;10.77;;;3.45;;
49396;SDS011;35615;41.410;2.194;2023-11-21T17:33:59;15.43;;;4.25;;
49396;SDS011;35615;41.410;2.194;2023-11-21T17:46:47;11.93;;;3.90;;
49396;SDS011;35615;41.410;2.194;2023-11-21T17:56:26;17.52;;;5.05;;
49396;SDS011;35615;41.410;2.194;2023-11-21T17:59:12;17.90;;;4.88;;
49396;SDS011;35615;41.410;2.194;2023-11-21T18:05:03;22.88;;;4.75;;
49396;SDS011;35615;41.410;2.194;2023-11-21T18:11:36;17.98;;;6.05;;
49396;SDS011;35615;41.410;2.194;2023-11-21T18:17:18;16.48;;;5.05;;
49396;SDS011;35615;41.410;2.194;2023-11-21T18:20:12;16.67;;;4.82;;
49396;SDS011;35615;41.410;2.194;2023-11-21T18:22:58;20.20;;;4.85;;
49396;SDS011;35615;41.410;2.194;2023-11-21T18:28:37;19.08;;;4.32;;
49396;SDS011;35615;41.410;2.194;2023-11-21T18:34:40;15.57;;;4.70;;
49396;SDS011;35615;41.410;2.194;2023-11-21T18:46:39;13.55;;;3.60;;
49396;SDS011;35615;41.410;2.194;2023-11-21T18:53:04;11.50;;;3.85;;
49396;SDS011;35615;41.410;2.194;2023-11-21T18:56:17;8.43;;;4.13;;
49396;SDS011;35615;41.410;2.194;2023-11-21T18:59:26;15.88;;;3.70;;
49396;SDS011;35615;41.410;2.194;2023-11-21T19:05:25;12.23;;;3.88;;
49396;SDS011;35615;41.410;2.194;2023-11-21T19:14:30;7.20;;;3.00;;
49396;SDS011;35615;41.410;2.194;2023-11-21T19:17:15;15.43;;;4.80;;
49396;SDS011;35615;41.410;2.194;2023-11-21T19:23:30;10.38;;;5.00;;
49396;SDS011;35615;41.410;2.194;2023-11-21T19:30:18;14.75;;;4.35;;
49396;SDS011;35615;41.410;2.194;2023-11-21T19:33:06;11.98;;;4.43;;
49396;SDS011;35615;41.410;2.194;2023-11-21T19:46:19;20.77;;;4.40;;
49396;SDS011;35615;41.410;2.194;2023-11-21T19:49:12;10.60;;;4.38;;
49396;SDS011;35615;41.410;2.194;2023-11-21T19:51:57;7.47;;;4.40;;
